Time;durP1;ratioP1;P1;durP2;ratioP2;P2;SDS_P1;SDS_P2;PMS_P1;PMS_P2;Temp;Humidity;BMP_temperature;BMP_pressure;BME280_temperature;BME280_humidity;BME280_pressure;Samples;Min_cycle;Max_cycle;Signal;HPM_P1;HPM_P2
2021/03/24 00:00:42;;;;;;;111.43;45.13;;;;;;;3.28;98.26;102173.72;6199106;28;20462;-81
2021/03/24 00:03:43;;;;;;;117.82;45.60;;;;;;;3.38;99.62;102178.91;6199169;28;20089;-82
2021/03/24 00:06:44;;;;;;;121.40;46.88;;;;;;;3.45;99.35;102180.63;6198936;28;20057;-81
2021/03/24 00:09:45;;;;;;;114.38;44.42;;;;;;;3.54;99.95;102175.41;6199231;28;20054;-81
2021/03/24 00:12:46;;;;;;;116.28;44.00;;;;;;;3.63;100.00;102169.31;6198666;28;20061;-83
2021/03/24 00:15:48;;;;;;;111.07;42.55;;;;;;;3.70;100.00;102171.06;6199156;28;20062;-83
2021/03/24 00:18:49;;;;;;;110.60;45.83;;;;;;;3.78;100.00;102175.38;6198612;28;20057;-80
2021/03/24 00:21:50;;;;;;;104.75;43.75;;;;;;;3.88;100.00;102175.34;6198439;28;20051;-83
2021/03/24 00:24:51;;;;;;;115.70;43.92;;;;;;;3.92;100.00;102180.53;6198959;28;20488;-83
2021/03/24 00:27:53;;;;;;;111.75;42.45;;;;;;;3.98;99.94;102184.84;6198334;28;20129;-83
2021/03/24 00:30:54;;;;;;;115.82;44.60;;;;;;;4.00;99.01;102190.94;6209642;23;20488;-75
2021/03/24 00:33:55;;;;;;;110.32;42.88;;;;;;;4.01;99.06;102184.84;6171403;28;20046;-76
2021/03/24 00:36:56;;;;;;;112.35;44.97;;;;;;;4.08;99.40;102187.41;6174173;28;20065;-75
2021/03/24 00:39:57;;;;;;;104.88;44.80;;;;;;;4.11;98.89;102183.94;6163895;28;20110;-74
2021/03/24 00:42:58;;;;;;;122.30;46.10;;;;;;;4.15;98.90;102177.00;6149997;28;20130;-76
2021/03/24 00:45:59;;;;;;;108.05;43.85;;;;;;;4.22;99.09;102179.56;6150378;28;20179;-77
2021/03/24 00:49:00;;;;;;;113.88;45.08;;;;;;;4.27;98.66;102184.75;6165847;28;20047;-75
2021/03/24 00:52:02;;;;;;;109.90;43.95;;;;;;;4.30;98.67;102187.34;6173918;28;20397;-76
2021/03/24 00:55:04;;;;;;;114.55;43.35;;;;;;;4.37;99.01;102183.84;6174159;28;20496;-77
2021/03/24 00:58:05;;;;;;;110.65;44.72;;;;;;;4.39;98.32;102174.28;6174106;28;20054;-75
2021/03/24 01:01:06;;;;;;;114.93;46.13;;;;;;;4.37;98.44;102162.16;6173689;28;20051;-75
2021/03/24 01:04:07;;;;;;;109.82;44.42;;;;;;;4.41;97.61;102158.69;6173697;28;20089;-77
2021/03/24 01:07:10;;;;;;;116.45;43.88;;;;;;;4.39;98.31;102160.41;6174022;28;20054;-75
2021/03/24 01:10:14;;;;;;;111.45;43.58;;;;;;;4.45;97.68;102156.06;6173552;28;20058;-76
2021/03/24 01:13:17;;;;;;;105.35;44.50;;;;;;;4.44;98.09;102159.50;6173549;28;20412;-76
2021/03/24 01:16:18;;;;;;;121.07;45.72;;;;;;;4.44;97.60;102154.31;6173599;28;20086;-77
2021/03/24 01:19:19;;;;;;;123.53;46.13;;;;;;;4.48;97.42;102158.63;6173789;28;20046;-76
2021/03/24 01:22:21;;;;;;;109.45;45.33;;;;;;;4.50;97.36;102153.44;6173422;28;20101;-74
2021/03/24 01:25:23;;;;;;;103.32;41.90;;;;;;;4.49;96.94;102155.13;6173751;28;20054;-75
2021/03/24 01:28:26;;;;;;;104.50;42.83;;;;;;;4.52;97.80;102152.53;6170062;28;20047;-74
2021/03/24 01:31:28;;;;;;;99.63;41.38;;;;;;;4.50;97.24;102148.22;6172901;28;20074;-75
2021/03/24 01:34:29;;;;;;;113.20;44.60;;;;;;;4.44;97.66;102149.09;6173203;28;20051;-75
2021/03/24 01:37:31;;;;;;;100.38;41.75;;;;;;;4.45;98.01;102156.06;6173766;28;20054;-75
2021/03/24 01:40:35;;;;;;;115.93;43.50;;;;;;;4.45;98.20;102157.75;6173346;28;20491;-75
2021/03/24 01:43:37;;;;;;;114.03;45.63;;;;;;;4.48;98.21;102152.56;6173282;28;20105;-75
2021/03/24 01:46:43;;;;;;;115.32;44.42;;;;;;;4.46;98.43;102156.91;6173324;28;20043;-75
2021/03/24 01:49:44;;;;;;;107.18;45.00;;;;;;;4.42;97.97;102150.00;6173440;28;20063;-75
2021/03/24 01:52:45;;;;;;;115.68;45.08;;;;;;;4.37;98.91;102155.22;6176450;28;20055;-75
2021/03/24 01:55:46;;;;;;;114.18;46.95;;;;;;;4.31;98.96;102150.03;6178091;28;20143;-75
2021/03/24 01:58:48;;;;;;;107.93;44.25;;;;;;;4.31;98.73;102144.81;6177869;28;20488;-75
2021/03/24 02:01:49;;;;;;;104.90;43.38;;;;;;;4.33;98.82;102145.69;6177603;28;20507;-74
2021/03/24 02:04:51;;;;;;;110.75;44.25;;;;;;;4.35;98.41;102149.16;6177855;28;20050;-74
2021/03/24 02:07:57;;;;;;;108.68;43.38;;;;;;;4.36;98.76;102143.09;6177752;28;20507;-75
2021/03/24 02:11:07;;;;;;;109.95;43.78;;;;;;;4.39;98.93;102150.00;6177535;28;20051;-74
2021/03/24 02:14:13;;;;;;;106.53;43.63;;;;;;;4.40;98.37;102149.97;6177477;28;20066;-75
2021/03/24 02:17:17;;;;;;;109.57;44.65;;;;;;;4.44;98.79;102146.50;6177654;28;20047;-74
2021/03/24 02:20:25;;;;;;;100.70;43.75;;;;;;;4.45;99.18;102142.16;6177342;28;20057;-75
2021/03/24 02:23:36;;;;;;;111.85;45.45;;;;;;;4.49;99.34;102139.53;6177363;28;20066;-75
2021/03/24 02:26:41;;;;;;;106.43;43.60;;;;;;;4.53;98.93;102148.19;6177288;28;20051;-75
2021/03/24 02:29:47;;;;;;;97.55;42.10;;;;;;;4.56;98.61;102140.38;6177358;28;20071;-75
2021/03/24 02:32:51;;;;;;;104.78;42.95;;;;;;;4.57;98.01;102135.13;6176651;28;20054;-75
2021/03/24 02:35:56;;;;;;;108.07;43.40;;;;;;;4.61;97.92;102133.38;6177225;28;20050;-75
2021/03/24 02:39:00;;;;;;;107.72;42.40;;;;;;;4.62;98.18;102135.09;6176939;28;20051;-75
2021/03/24 02:42:04;;;;;;;120.68;47.35;;;;;;;4.60;98.29;102123.84;6176800;28;20051;-75
2021/03/24 02:45:09;;;;;;;103.47;43.10;;;;;;;4.67;97.46;102119.47;6176784;28;20050;-75
2021/03/24 02:48:14;;;;;;;118.57;43.53;;;;;;;4.67;97.57;102128.13;6176997;28;20058;-75
2021/03/24 02:51:19;;;;;;;106.75;43.35;;;;;;;4.68;97.30;102126.38;6170938;28;20538;-75
2021/03/24 02:54:22;;;;;;;110.07;43.97;;;;;;;4.62;97.89;102116.88;6176876;28;20050;-75
2021/03/24 02:57:23;;;;;;;126.38;47.38;;;;;;;4.69;97.41;102120.31;6176553;28;20054;-74
2021/03/24 03:00:27;;;;;;;114.85;46.20;;;;;;;4.69;97.77;102120.31;6176637;28;20058;-74
2021/03/24 03:03:31;;;;;;;129.07;48.97;;;;;;;4.72;97.58;102122.88;6175324;28;20050;-75
2021/03/24 03:06:32;;;;;;;107.13;43.85;;;;;;;4.74;97.42;102121.16;6176485;28;20515;-75
2021/03/24 03:09:40;;;;;;;113.95;45.88;;;;;;;4.73;97.03;102106.41;6176286;28;20055;-75
2021/03/24 03:12:49;;;;;;;102.90;43.67;;;;;;;4.68;97.23;102105.56;6176198;28;20058;-75
2021/03/24 03:16:01;;;;;;;117.72;46.10;;;;;;;4.66;97.65;102109.94;6175826;28;20530;-75
2021/03/24 03:19:07;;;;;;;115.15;45.05;;;;;;;4.70;97.30;102103.81;6176428;28;20138;-75
2021/03/24 03:22:15;;;;;;;114.82;47.72;;;;;;;4.74;96.82;102115.94;6175903;28;20082;-75
2021/03/24 03:25:22;;;;;;;117.78;46.53;;;;;;;4.75;96.76;102112.47;6176277;28;20051;-75
2021/03/24 03:28:27;;;;;;;118.97;47.58;;;;;;;4.77;97.00;102111.59;6175868;28;20412;-75
2021/03/24 03:31:33;;;;;;;114.45;46.63;;;;;;;4.80;97.11;102121.97;6175558;28;20055;-75
2021/03/24 03:34:35;;;;;;;115.95;47.03;;;;;;;4.79;96.94;102115.03;6175734;28;20050;-74
2021/03/24 03:37:37;;;;;;;109.35;45.15;;;;;;;4.72;96.90;102113.34;6175727;28;20523;-74
2021/03/24 03:40:41;;;;;;;123.15;45.97;;;;;;;4.71;97.63;102110.75;6175502;28;20427;-74
2021/03/24 03:43:46;;;;;;;113.32;44.47;;;;;;;4.74;97.38;102102.94;6175479;28;20081;-74
2021/03/24 03:46:50;;;;;;;119.50;47.63;;;;;;;4.74;97.40;102102.94;6175570;28;20046;-75
2021/03/24 03:49:51;;;;;;;114.65;46.33;;;;;;;4.76;97.63;102103.75;6175431;28;20142;-75
2021/03/24 03:53:06;;;;;;;110.00;45.00;;;;;;;4.77;97.97;102102.91;6175131;28;20058;-74
2021/03/24 03:56:13;;;;;;;111.72;46.83;;;;;;;4.76;97.83;102107.22;6175259;28;20062;-75
2021/03/24 03:59:20;;;;;;;107.82;44.20;;;;;;;4.75;97.29;102102.91;6175362;28;20055;-75
2021/03/24 04:02:27;;;;;;;113.68;46.85;;;;;;;4.73;97.87;102103.81;6174870;28;20054;-75
2021/03/24 04:05:32;;;;;;;119.43;49.35;;;;;;;4.75;97.55;102105.50;6175253;28;20047;-75
2021/03/24 04:08:35;;;;;;;114.47;47.03;;;;;;;4.68;98.04;102100.34;6174862;28;20122;-75
2021/03/24 04:11:44;;;;;;;101.60;44.78;;;;;;;4.58;97.16;102100.41;6174806;28;20511;-75
2021/03/24 04:14:45;;;;;;;102.68;44.40;;;;;;;4.47;97.61;102097.03;6174580;28;20053;-75
2021/03/24 04:17:50;;;;;;;113.05;46.85;;;;;;;4.32;97.96;102097.13;6174994;28;20499;-75
2021/03/24 04:20:53;;;;;;;121.40;49.05;;;;;;;4.30;98.42;102104.94;6174724;28;20043;-75
2021/03/24 04:24:02;;;;;;;109.60;48.33;;;;;;;4.23;98.63;102105.00;6174703;28;20087;-75
2021/03/24 04:27:07;;;;;;;117.80;46.75;;;;;;;4.15;98.90;102110.22;6176789;28;20050;-75
2021/03/24 04:30:12;;;;;;;118.35;46.67;;;;;;;4.06;98.71;102102.47;6179293;28;20051;-75
2021/03/24 04:33:14;;;;;;;118.07;49.58;;;;;;;4.00;99.25;102100.75;6174120;28;20109;-76
2021/03/24 04:36:25;;;;;;;118.65;47.30;;;;;;;3.93;99.15;102106.84;6174487;28;20062;-75
2021/03/24 04:39:31;;;;;;;120.43;49.95;;;;;;;3.98;100.00;102107.69;6174293;28;20765;-75
2021/03/24 04:42:39;;;;;;;119.65;49.10;;;;;;;3.99;99.66;102108.56;6174159;28;20074;-75
2021/03/24 04:45:44;;;;;;;119.75;48.63;;;;;;;4.00;99.98;102118.97;6174261;28;20063;-75
2021/03/24 04:48:49;;;;;;;123.25;48.10;;;;;;;3.90;99.44;102108.59;6174046;28;20489;-75
2021/03/24 04:51:51;;;;;;;124.32;49.22;;;;;;;3.89;99.74;102118.13;6173763;28;20676;-75
2021/03/24 04:54:54;;;;;;;121.88;48.03;;;;;;;3.85;100.00;102113.81;6174071;28;20043;-74
2021/03/24 04:57:57;;;;;;;124.55;50.17;;;;;;;3.77;100.00;102107.75;6173882;28;20046;-75
2021/03/24 05:01:04;;;;;;;123.75;49.80;;;;;;;3.73;100.00;102119.94;6173819;28;20047;-75
2021/03/24 05:04:12;;;;;;;130.40;51.72;;;;;;;3.65;100.00;102113.88;6173880;28;20055;-75
2021/03/24 05:07:35;;;;;;;119.97;48.80;;;;;;;3.65;100.00;102113.03;6174202;28;20135;-75
2021/03/24 05:10:36;;;;;;;118.85;46.40;;;;;;;3.59;100.00;102111.31;6173626;28;20054;-75
2021/03/24 05:13:42;;;;;;;127.57;48.28;;;;;;;3.55;100.00;102110.44;6173547;28;20047;-78
2021/03/24 05:16:49;;;;;;;122.10;47.45;;;;;;;3.56;100.00;102106.97;6173791;28;20113;-78
2021/03/24 05:19:56;;;;;;;120.57;47.65;;;;;;;3.53;100.00;102109.56;6173950;28;20048;-78
2021/03/24 05:22:58;;;;;;;129.10;51.75;;;;;;;3.57;100.00;102110.44;6173412;28;20055;-78
2021/03/24 05:26:02;;;;;;;135.88;51.42;;;;;;;3.66;100.00;102109.53;6176111;28;20078;-78
2021/03/24 05:29:07;;;;;;;130.18;51.58;;;;;;;3.78;100.00;102109.50;6181848;28;20055;-78
2021/03/24 05:32:15;;;;;;;130.50;50.47;;;;;;;3.82;100.00;102106.03;6181088;28;20050;-78
2021/03/24 05:35:35;;;;;;;121.60;48.53;;;;;;;3.83;100.00;102106.91;6181579;28;20054;-78
2021/03/24 05:38:39;;;;;;;128.75;51.10;;;;;;;3.81;100.00;102115.56;6181533;28;20055;-78
2021/03/24 05:41:46;;;;;;;137.70;54.63;;;;;;;3.82;100.00;102113.84;6181322;28;20050;-78
2021/03/24 05:45:12;;;;;;;129.00;50.92;;;;;;;3.87;100.00;102112.09;6181936;28;20047;-78
2021/03/24 05:48:44;;;;;;;131.13;51.83;;;;;;;3.87;100.00;102113.81;6181382;28;20055;-76
2021/03/24 05:52:01;;;;;;;130.55;50.90;;;;;;;3.84;100.00;102111.22;6181256;28;20054;-78
2021/03/24 05:55:19;;;;;;;138.20;51.75;;;;;;;3.82;100.00;102111.25;6181510;28;20054;-77
2021/03/24 05:58:35;;;;;;;128.98;51.75;;;;;;;3.87;100.00;102112.09;6181494;28;20574;-78
2021/03/24 06:01:46;;;;;;;142.00;52.08;;;;;;;3.90;100.00;102116.38;6181174;28;20059;-78
2021/03/24 06:04:52;;;;;;;135.90;52.25;;;;;;;3.91;100.00;102119.00;6181094;28;20070;-78
2021/03/24 06:08:41;;;;;;;135.98;53.63;;;;;;;3.90;100.00;102109.44;6181165;28;20050;-75
2021/03/24 06:11:54;;;;;;;120.25;48.97;;;;;;;3.87;100.00;102108.63;6180819;28;20054;-75
2021/03/24 06:15:25;;;;;;;129.98;50.78;;;;;;;3.81;100.00;102105.19;6181044;28;20054;-75
2021/03/24 06:18:59;;;;;;;138.77;52.38;;;;;;;3.81;100.00;102101.69;6181022;28;20062;-75
2021/03/24 06:22:11;;;;;;;135.65;51.75;;;;;;;3.83;100.00;102101.69;6180575;28;20051;-75
2021/03/24 06:25:30;;;;;;;130.50;52.22;;;;;;;3.87;100.00;102111.22;6180860;28;20480;-75
2021/03/24 06:28:41;;;;;;;138.38;52.03;;;;;;;3.89;100.00;102112.06;6181094;28;20114;-74
2021/03/24 06:31:59;;;;;;;130.93;52.35;;;;;;;3.91;100.00;102111.22;6202391;23;20058;-75
2021/03/24 06:35:21;;;;;;;144.77;55.35;;;;;;;3.94;100.00;102107.72;6180605;28;20432;-76
2021/03/24 06:38:35;;;;;;;139.32;53.50;;;;;;;3.95;100.00;102109.44;6178373;28;20058;-75
2021/03/24 06:41:56;;;;;;;128.32;51.72;;;;;;;4.05;100.00;102109.41;6162797;28;20489;-76
2021/03/24 06:45:08;;;;;;;138.55;53.33;;;;;;;4.10;100.00;102111.13;6153277;28;20485;-76
2021/03/24 06:48:25;;;;;;;136.32;54.28;;;;;;;4.17;100.00;102107.59;6152991;28;20062;-76
2021/03/24 06:52:09;;;;;;;134.18;54.72;;;;;;;4.22;100.00;102109.31;6152741;28;20106;-75
2021/03/24 06:55:59;;;;;;;139.88;55.33;;;;;;;4.29;100.00;102116.22;6152898;28;20051;-75
2021/03/24 06:59:25;;;;;;;161.95;57.42;;;;;;;4.40;100.00;102108.34;6152969;28;20110;-75
2021/03/24 07:03:03;;;;;;;141.43;58.03;;;;;;;4.53;99.39;102116.94;6152310;28;20043;-75
2021/03/24 07:06:20;;;;;;;149.65;56.33;;;;;;;4.56;99.78;102117.78;6152862;29;20066;-76
2021/03/24 07:09:35;;;;;;;143.52;56.72;;;;;;;4.65;99.61;102113.41;6152846;28;20051;-76
2021/03/24 07:12:46;;;;;;;139.98;53.63;;;;;;;4.68;99.14;102111.66;6152023;29;20047;-75
2021/03/24 07:15:54;;;;;;;140.65;55.20;;;;;;;4.72;98.98;102117.69;6152376;28;20051;-76
2021/03/24 07:19:10;;;;;;;127.65;53.88;;;;;;;4.86;98.54;102118.47;6152329;28;20051;-75
2021/03/24 07:22:22;;;;;;;131.32;55.25;;;;;;;4.92;97.22;102121.03;6152093;28;20043;-75
2021/03/24 07:25:42;;;;;;;126.13;51.17;;;;;;;5.01;96.66;102122.69;6181704;28;20042;-73
2021/03/24 07:29:00;;;;;;;;;;;;;;;5.07;96.50;102123.50;6180676;28;20086;-75
2021/03/24 07:32:06;;;;;;;129.13;51.53;;;;;;;5.19;95.33;102112.09;6179804;28;20322;-74
2021/03/24 07:35:22;;;;;;;118.45;50.70;;;;;;;5.32;94.00;102121.53;6186439;28;20504;-74
2021/03/24 07:38:52;;;;;;;118.25;51.10;;;;;;;5.35;93.35;102124.09;6194477;28;20088;-75
2021/03/24 07:42:14;;;;;;;114.20;49.28;;;;;;;5.39;93.33;102118.88;6199161;28;20051;-76
2021/03/24 07:45:27;;;;;;;116.28;49.40;;;;;;;5.45;93.40;102106.66;6199594;28;20057;-72
2021/03/24 07:48:52;;;;;;;107.25;46.67;;;;;;;5.55;93.03;102115.25;6175214;28;20051;-75
2021/03/24 07:52:08;;;;;;;106.80;49.40;;;;;;;5.63;92.43;102116.00;6174446;28;20420;-73
2021/03/24 07:55:15;;;;;;;102.53;48.35;;;;;;;5.88;90.08;102114.00;6175226;28;20054;-73
2021/03/24 07:58:33;;;;;;;102.03;46.75;;;;;;;6.23;88.77;102116.19;6175216;28;20105;-74
2021/03/24 08:01:41;;;;;;;108.53;46.00;;;;;;;6.11;88.76;102116.34;6172052;28;20050;-76
2021/03/24 08:05:14;;;;;;;93.65;44.88;;;;;;;6.23;88.16;102113.59;6174960;28;20066;-73
2021/03/24 08:08:22;;;;;;;95.38;43.60;;;;;;;6.24;88.26;102110.09;6174911;28;20043;-73
2021/03/24 08:11:32;;;;;;;101.20;45.55;;;;;;;6.35;87.45;102128.19;6155904;28;20492;-73
2021/03/24 08:14:55;;;;;;;103.72;44.92;;;;;;;6.43;86.30;102117.66;6174617;28;20519;-74
2021/03/24 08:18:08;;;;;;;100.25;45.22;;;;;;;6.51;85.29;102116.66;6173688;28;20134;-74
2021/03/24 08:21:19;;;;;;;87.80;41.70;;;;;;;6.69;84.82;102119.91;6171718;28;20507;-74
2021/03/24 08:24:32;;;;;;;92.72;43.25;;;;;;;6.71;83.19;102123.34;6174637;28;20058;-74
2021/03/24 08:27:38;;;;;;;88.68;41.95;;;;;;;6.75;82.61;102120.66;6166780;28;20046;-73
2021/03/24 08:30:57;;;;;;;92.45;43.88;;;;;;;6.80;82.72;102121.44;6173349;28;20053;-74
2021/03/24 08:34:09;;;;;;;85.38;41.03;;;;;;;6.75;83.96;102125.88;6173074;28;20412;-74
2021/03/24 08:37:41;;;;;;;84.45;42.85;;;;;;;6.79;83.52;102121.47;6166405;28;20058;-74
2021/03/24 08:41:20;;;;;;;88.18;43.33;;;;;;;6.94;84.03;102112.53;6174035;28;20105;-74
2021/03/24 08:44:24;;;;;;;90.70;41.75;;;;;;;7.02;84.35;102113.28;6159480;28;20039;-74
2021/03/24 08:47:29;;;;;;;98.75;42.58;;;;;;;7.07;83.79;102114.91;6173946;28;20058;-74
2021/03/24 08:50:34;;;;;;;85.47;41.63;;;;;;;7.37;82.00;102112.66;6174063;28;20525;-74
2021/03/24 08:53:46;;;;;;;80.57;40.67;;;;;;;7.46;81.95;102099.44;6156425;28;20570;-74
2021/03/24 08:56:55;;;;;;;84.07;42.00;;;;;;;7.76;80.41;102102.31;6150246;29;20062;-74
2021/03/24 09:00:04;;;;;;;87.32;42.15;;;;;;;7.63;80.50;102099.97;6149527;28;20048;-74
2021/03/24 09:03:23;;;;;;;89.10;41.10;;;;;;;7.68;80.67;102097.25;6165583;28;20518;-75
2021/03/24 09:06:33;;;;;;;86.22;40.60;;;;;;;7.82;79.90;102097.00;6173644;28;20055;-74
2021/03/24 09:09:47;;;;;;;81.75;39.78;;;;;;;7.94;79.63;102090.63;6173775;28;20054;-74
2021/03/24 09:12:52;;;;;;;83.45;39.65;;;;;;;7.82;79.68;102091.75;6172619;28;20050;-76
2021/03/24 09:16:16;;;;;;;79.68;40.00;;;;;;;8.04;78.87;102090.41;6173637;28;20047;-75
2021/03/24 09:19:31;;;;;;;78.10;39.67;;;;;;;7.96;80.01;102091.47;6173721;28;20094;-74
2021/03/24 09:22:41;;;;;;;79.70;37.30;;;;;;;8.38;78.09;102089.69;6172408;28;20050;-75
2021/03/24 09:25:47;;;;;;;83.03;39.20;;;;;;;8.32;79.23;102090.69;6173200;28;20500;-75
2021/03/24 09:29:06;;;;;;;81.55;40.38;;;;;;;8.36;78.24;102087.13;6173114;28;20065;-75
2021/03/24 09:32:29;;;;;;;77.60;40.40;;;;;;;8.45;77.22;102083.44;6172461;28;20506;-75
2021/03/24 09:35:42;;;;;;;83.85;41.40;;;;;;;8.39;77.60;102083.56;6172454;28;20043;-75
2021/03/24 09:38:46;;;;;;;80.13;40.53;;;;;;;8.38;78.15;102074.00;6149248;29;20429;-75
2021/03/24 09:41:54;;;;;;;84.85;38.33;;;;;;;8.47;77.58;102079.00;6148518;29;20055;-74
2021/03/24 09:45:06;;;;;;;79.70;40.35;;;;;;;8.68;78.25;102071.56;6149026;29;20058;-74
2021/03/24 09:48:12;;;;;;;79.32;39.78;;;;;;;8.63;78.01;102069.03;6148914;29;20051;-74
2021/03/24 09:51:17;;;;;;;75.35;36.67;;;;;;;8.74;76.93;102059.16;6148549;29;20134;-79
2021/03/24 09:54:21;;;;;;;82.50;38.20;;;;;;;9.04;75.84;102052.28;6148970;28;20043;-77
2021/03/24 09:57:28;;;;;;;74.93;38.88;;;;;;;9.17;75.48;102051.94;6148632;28;20058;-74
2021/03/24 10:00:31;;;;;;;75.63;35.95;;;;;;;9.22;76.11;102060.53;6148672;28;20052;-78
2021/03/24 10:03:38;;;;;;;72.38;37.58;;;;;;;9.36;74.67;102053.19;6147624;29;20062;-74
2021/03/24 10:06:49;;;;;;;67.68;35.30;;;;;;;9.50;74.47;102058.06;6148964;28;20409;-78
2021/03/24 10:09:57;;;;;;;69.32;35.92;;;;;;;9.68;72.93;102046.19;6149325;29;20134;-77
2021/03/24 10:13:07;;;;;;;67.68;37.00;;;;;;;9.65;72.68;102049.75;6150163;28;20055;-77
2021/03/24 10:16:16;;;;;;;67.30;34.42;;;;;;;9.80;72.26;102045.81;6153626;28;20095;-76
2021/03/24 10:19:24;;;;;;;68.10;34.90;;;;;;;9.79;72.38;102049.34;6153320;28;20089;-77
2021/03/24 10:22:34;;;;;;;70.15;36.58;;;;;;;9.81;73.57;102042.25;6152738;29;20501;-76
2021/03/24 10:25:37;;;;;;;73.82;36.25;;;;;;;10.06;71.53;102043.28;6152885;28;20571;-77
2021/03/24 10:28:43;;;;;;;71.05;35.17;;;;;;;10.01;70.45;102046.94;6176887;28;20051;-77
2021/03/24 10:31:49;;;;;;;66.60;34.35;;;;;;;10.02;71.74;102043.41;6176354;28;20051;-76
2021/03/24 10:34:57;;;;;;;71.70;34.67;;;;;;;10.10;71.82;102038.78;6176621;28;20055;-77
2021/03/24 10:38:04;;;;;;;78.32;35.92;;;;;;;10.23;71.46;102034.03;6164502;28;20062;-77
2021/03/24 10:41:30;;;;;;;69.40;36.65;;;;;;;10.23;71.88;102039.28;6189065;28;20049;-77
2021/03/24 10:44:49;;;;;;;65.18;34.38;;;;;;;10.16;70.67;102026.31;6197332;28;20101;-78
2021/03/24 10:47:57;;;;;;;69.27;34.13;;;;;;;10.54;70.31;102037.44;6176788;28;20522;-77
2021/03/24 10:51:07;;;;;;;94.53;35.47;;;;;;;10.63;70.65;102029.25;6175830;28;20135;-78
2021/03/24 10:54:16;;;;;;;71.20;34.95;;;;;;;10.67;67.55;102027.34;6176610;28;20050;-77
2021/03/24 10:57:30;;;;;;;64.53;34.00;;;;;;;10.53;67.79;102026.94;6176599;28;20055;-76
2021/03/24 11:00:35;;;;;;;67.28;34.22;;;;;;;10.70;68.52;102015.88;6182450;28;20891;-75
2021/03/24 11:03:51;;;;;;;65.22;35.90;;;;;;;10.82;68.68;102008.44;6199610;28;20058;-75
2021/03/24 11:06:59;;;;;;;65.72;35.42;;;;;;;10.98;67.50;102008.75;6152043;28;20051;-78
2021/03/24 11:10:17;;;;;;;64.43;34.90;;;;;;;11.07;65.82;102005.81;6177525;28;20059;-77
2021/03/24 11:13:25;;;;;;;67.70;33.30;;;;;;;11.07;67.74;101987.41;6181593;28;20051;-77
2021/03/24 11:16:34;;;;;;;65.20;34.03;;;;;;;11.64;65.91;102001.97;6186814;28;20053;-77
2021/03/24 11:19:39;;;;;;;64.05;33.83;;;;;;;11.49;64.64;101994.66;6188200;28;20057;-77
2021/03/24 11:22:52;;;;;;;71.47;35.67;;;;;;;11.51;64.00;101994.59;6186709;28;20055;-75
2021/03/24 11:25:57;;;;;;;69.88;34.33;;;;;;;11.71;63.35;101989.44;6186966;28;20053;-77
2021/03/24 11:29:02;;;;;;;64.65;35.55;;;;;;;11.65;64.58;101974.72;6182060;28;20526;-76
2021/03/24 11:32:17;;;;;;;67.18;34.90;;;;;;;12.16;64.31;101986.81;6184691;28;20054;-77
2021/03/24 11:35:27;;;;;;;67.80;34.60;;;;;;;12.31;62.12;101988.00;6183349;28;20451;-77
2021/03/24 11:38:39;;;;;;;63.15;34.00;;;;;;;12.35;64.39;101978.16;6182079;28;20054;-77
2021/03/24 11:41:43;;;;;;;67.72;33.35;;;;;;;12.56;62.57;101979.06;6184678;28;20209;-77
2021/03/24 11:44:46;;;;;;;58.42;31.98;;;;;;;12.43;61.40;101970.78;6186677;28;20129;-77
2021/03/24 11:48:13;;;;;;;62.58;33.83;;;;;;;12.75;60.43;101979.13;6184749;28;20100;-76
2021/03/24 11:51:26;;;;;;;71.00;34.50;;;;;;;12.66;61.49;101969.81;6174214;28;20046;-76
2021/03/24 11:54:35;;;;;;;64.85;35.35;;;;;;;13.21;63.54;101968.28;6193139;28;20558;-76
2021/03/24 11:57:49;;;;;;;62.92;33.25;;;;;;;13.43;60.13;101975.25;6196164;28;20492;-76
2021/03/24 12:00:56;;;;;;;64.00;35.42;;;;;;;13.27;60.34;101966.34;6181944;28;20062;-76
2021/03/24 12:04:19;;;;;;;72.10;34.42;;;;;;;13.36;59.81;101964.13;6184300;28;20050;-74
2021/03/24 12:07:51;;;;;;;59.85;33.75;;;;;;;13.42;58.37;101965.63;6182162;28;20050;-76
2021/03/24 12:11:03;;;;;;;67.20;34.13;;;;;;;13.47;57.93;101961.00;6183971;28;20076;-75
2021/03/24 12:14:10;;;;;;;60.75;31.55;;;;;;;13.44;58.64;101945.28;6184009;28;20046;-74
2021/03/24 12:17:27;;;;;;;63.13;33.63;;;;;;;13.81;58.49;101946.22;6182661;28;20050;-74
2021/03/24 12:20:29;;;;;;;59.75;31.60;;;;;;;14.00;57.23;101941.75;6185082;28;20057;-75
2021/03/24 12:23:34;;;;;;;57.95;32.25;;;;;;;14.10;55.93;101940.38;6175233;28;20133;-75
2021/03/24 12:26:38;;;;;;;64.40;33.65;;;;;;;14.27;56.72;101930.78;6173871;28;20046;-74
2021/03/24 12:29:40;;;;;;;63.17;31.90;;;;;;;14.15;54.00;101929.56;6174192;28;20055;-75
2021/03/24 12:32:41;;;;;;;62.15;31.70;;;;;;;14.08;53.67;101912.28;6173415;28;20050;-76
2021/03/24 12:35:45;;;;;;;54.30;31.42;;;;;;;14.18;53.30;101922.34;6231041;23;20108;-85
2021/03/24 12:38:50;;;;;;;62.95;33.35;;;;;;;14.18;54.75;101906.50;6198479;28;20054;-81
2021/03/24 12:41:51;;;;;;;60.08;30.13;;;;;;;14.38;52.58;101915.22;6197282;28;20478;-83
2021/03/24 12:44:53;;;;;;;64.85;31.83;;;;;;;14.15;53.83;101903.13;6212158;28;20045;-79
2021/03/24 12:48:07;;;;;;;60.85;33.38;;;;;;;14.74;53.90;101904.56;6222160;28;20085;-79
2021/03/24 12:51:11;;;;;;;57.30;32.00;;;;;;;14.68;53.78;101897.81;6221980;28;20081;-79
2021/03/24 12:54:13;;;;;;;58.63;30.77;;;;;;;14.92;52.57;101887.72;6222207;28;20050;-78
2021/03/24 12:57:29;;;;;;;62.22;31.38;;;;;;;15.38;51.44;101892.31;6222519;28;20062;-78
2021/03/24 13:00:40;;;;;;;58.63;31.52;;;;;;;14.93;51.61;101891.19;6221160;28;20054;-82
2021/03/24 13:04:18;;;;;;;73.43;32.85;;;;;;;15.35;53.24;101881.88;6221551;28;20077;-81
2021/03/24 13:07:34;;;;;;;57.13;32.10;;;;;;;15.26;49.97;101888.56;6222585;28;20100;-92
2021/03/24 13:10:50;;;;;;;61.50;31.85;;;;;;;15.21;51.28;101882.63;6222300;28;20050;-83
2021/03/24 13:14:02;;;;;;;66.38;33.13;;;;;;;15.19;50.41;101887.16;6222748;28;20050;-83
2021/03/24 13:17:13;;;;;;;62.20;33.28;;;;;;;15.60;51.06;101873.41;6222276;28;20049;-80
2021/03/24 13:20:21;;;;;;;64.97;32.95;;;;;;;15.19;48.61;101874.78;6222303;28;20064;-81
2021/03/24 13:23:33;;;;;;;59.03;31.55;;;;;;;15.21;51.58;101862.31;6221598;28;20419;-80
2021/03/24 13:26:36;;;;;;;60.33;32.88;;;;;;;15.53;51.13;101864.94;6221920;28;20053;-82
2021/03/24 13:29:46;;;;;;;60.10;32.83;;;;;;;15.60;51.04;101852.22;6220665;28;20050;-82
2021/03/24 13:32:54;;;;;;;62.00;33.92;;;;;;;15.60;48.92;101862.81;6221574;28;20154;-79
2021/03/24 13:36:01;;;;;;;57.90;33.38;;;;;;;15.39;48.62;101854.28;6221804;28;20057;-81
2021/03/24 13:39:11;;;;;;;60.50;30.90;;;;;;;15.39;49.19;101847.19;6222091;28;20403;-82
2021/03/24 13:42:23;;;;;;;54.55;31.02;;;;;;;16.04;49.33;101835.59;6220689;28;20499;-80
2021/03/24 13:45:31;;;;;;;63.40;32.42;;;;;;;16.05;48.05;101846.09;6197311;28;20430;-82
2021/03/24 13:48:36;;;;;;;61.83;32.88;;;;;;;15.58;47.50;101836.41;6201008;28;20050;-79
2021/03/24 13:51:41;;;;;;;58.40;31.83;;;;;;;15.50;47.82;101830.69;6225211;28;20053;-83
2021/03/24 13:54:59;;;;;;;57.58;30.42;;;;;;;15.53;47.32;101832.31;6226900;28;20052;-85
2021/03/24 13:58:14;;;;;;;57.00;32.03;;;;;;;15.46;48.71;101830.00;6225598;28;20822;-81
2021/03/24 14:01:19;;;;;;;55.70;31.45;;;;;;;15.18;47.74;101824.56;6201156;28;20510;-81
2021/03/24 14:04:38;;;;;;;56.60;30.55;;;;;;;15.57;50.30;101816.13;6201706;28;20073;-81
2021/03/24 14:08:05;;;;;;;74.47;33.30;;;;;;;15.83;50.37;101809.38;6201961;28;20411;-84
2021/03/24 14:11:27;;;;;;;56.70;32.10;;;;;;;15.83;46.73;101811.19;6202396;28;20050;-86
2021/03/24 14:14:42;;;;;;;59.78;32.65;;;;;;;15.58;48.85;101804.63;6201902;28;20050;-86
2021/03/24 14:18:03;;;;;;;53.20;30.25;;;;;;;16.06;46.68;101800.06;6202046;28;20058;-81
2021/03/24 14:21:17;;;;;;;57.88;31.65;;;;;;;15.73;47.49;101787.00;6214575;28;20511;-82